sensor_id;sensor_type;location;lat;lon;timestamp;pressure;altitude;pressure_sealevel;temperature;humidity
78016;BME280;67223;51.102;5.882;2024-01-07T00:00:26;101068.44;;;2.45;100.00
78016;BME280;67223;51.102;5.882;2024-01-07T00:02:52;101069.66;;;2.38;100.00
78016;BME280;67223;51.102;5.882;2024-01-07T00:05:17;101075.97;;;2.34;100.00
78016;BME280;67223;51.102;5.882;2024-01-07T00:07:42;101069.56;;;2.40;100.00
78016;BME280;67223;51.102;5.882;2024-01-07T00:10:08;101077.94;;;2.29;100.00
78016;BME280;67223;51.102;5.882;2024-01-07T00:12:34;101075.69;;;2.40;100.00
78016;BME280;67223;51.102;5.882;2024-01-07T00:15:00;101084.41;;;2.42;100.00
78016;BME280;67223;51.102;5.882;2024-01-07T00:17:26;101082.84;;;2.38;100.00
78016;BME280;67223;51.102;5.882;2024-01-07T00:19:51;101077.22;;;2.46;100.00
78016;BME280;67223;51.102;5.882;2024-01-07T00:22:17;101080.13;;;2.40;100.00
78016;BME280;67223;51.102;5.882;2024-01-07T00:24:43;101086.25;;;2.40;100.00
78016;BME280;67223;51.102;5.882;2024-01-07T00:27:08;101082.69;;;2.41;100.00
78016;BME280;67223;51.102;5.882;2024-01-07T00:29:33;101089.53;;;2.45;100.00
78016;BME280;67223;51.102;5.882;2024-01-07T00:32:00;101089.13;;;2.34;100.00
78016;BME280;67223;51.102;5.882;2024-01-07T00:34:26;101088.09;;;2.38;100.00
78016;BME280;67223;51.102;5.882;2024-01-07T00:36:51;101092.53;;;2.38;100.00
78016;BME280;67223;51.102;5.882;2024-01-07T00:39:17;101096.69;;;2.43;100.00
78016;BME280;67223;51.102;5.882;2024-01-07T00:41:42;101091.25;;;2.46;100.00
78016;BME280;67223;51.102;5.882;2024-01-07T00:44:07;101104.69;;;2.40;100.00
78016;BME280;67223;51.102;5.882;2024-01-07T00:46:33;101091.41;;;2.43;100.00
78016;BME280;67223;51.102;5.882;2024-01-07T00:48:58;101104.56;;;2.43;100.00
78016;BME280;67223;51.102;5.882;2024-01-07T00:51:24;101098.56;;;2.40;100.00
78016;BME280;67223;51.102;5.882;2024-01-07T00:53:49;101097.44;;;2.45;100.00
78016;BME280;67223;51.102;5.882;2024-01-07T00:56:15;101103.78;;;2.41;100.00
78016;BME280;67223;51.102;5.882;2024-01-07T00:58:40;101111.53;;;2.44;100.00
78016;BME280;67223;51.102;5.882;2024-01-07T01:01:06;101101.00;;;2.44;100.00
78016;BME280;67223;51.102;5.882;2024-01-07T01:03:31;101107.94;;;2.47;100.00
78016;BME280;67223;51.102;5.882;2024-01-07T01:05:56;101113.16;;;2.48;100.00
78016;BME280;67223;51.102;5.882;2024-01-07T01:08:22;101115.13;;;2.43;100.00
78016;BME280;67223;51.102;5.882;2024-01-07T01:10:48;101114.31;;;2.41;100.00
78016;BME280;67223;51.102;5.882;2024-01-07T01:13:13;101125.72;;;2.42;100.00
78016;BME280;67223;51.102;5.882;2024-01-07T01:15:39;101129.16;;;2.44;100.00
78016;BME280;67223;51.102;5.882;2024-01-07T01:18:05;101136.50;;;2.36;100.00
78016;BME280;67223;51.102;5.882;2024-01-07T01:20:30;101128.56;;;2.37;100.00
78016;BME280;67223;51.102;5.882;2024-01-07T01:22:56;101140.06;;;2.35;100.00
78016;BME280;67223;51.102;5.882;2024-01-07T01:25:21;101134.69;;;2.38;100.00
78016;BME280;67223;51.102;5.882;2024-01-07T01:27:47;101135.66;;;2.35;100.00
78016;BME280;67223;51.102;5.882;2024-01-07T01:30:12;101145.78;;;2.44;100.00
78016;BME280;67223;51.102;5.882;2024-01-07T01:32:39;101144.22;;;2.40;100.00
78016;BME280;67223;51.102;5.882;2024-01-07T01:35:05;101143.50;;;2.37;100.00
78016;BME280;67223;51.102;5.882;2024-01-07T01:37:31;101142.78;;;2.33;100.00
78016;BME280;67223;51.102;5.882;2024-01-07T01:39:58;101148.13;;;2.32;100.00
78016;BME280;67223;51.102;5.882;2024-01-07T01:42:24;101152.28;;;2.37;100.00
78016;BME280;67223;51.102;5.882;2024-01-07T01:44:49;101156.47;;;2.41;100.00
78016;BME280;67223;51.102;5.882;2024-01-07T01:47:14;101158.84;;;2.27;100.00
78016;BME280;67223;51.102;5.882;2024-01-07T01:49:41;101154.91;;;2.37;100.00
78016;BME280;67223;51.102;5.882;2024-01-07T01:52:06;101160.91;;;2.41;100.00
78016;BME280;67223;51.102;5.882;2024-01-07T01:54:32;101160.94;;;2.39;100.00
78016;BME280;67223;51.102;5.882;2024-01-07T01:56:58;101161.25;;;2.33;100.00
78016;BME280;67223;51.102;5.882;2024-01-07T01:59:25;101155.78;;;2.38;100.00
78016;BME280;67223;51.102;5.882;2024-01-07T02:01:50;101157.75;;;2.33;100.00
78016;BME280;67223;51.102;5.882;2024-01-07T02:04:16;101160.22;;;2.36;100.00
78016;BME280;67223;51.102;5.882;2024-01-07T02:06:42;101167.41;;;2.32;100.00
78016;BME280;67223;51.102;5.882;2024-01-07T02:09:09;101169.91;;;2.35;100.00
78016;BME280;67223;51.102;5.882;2024-01-07T02:11:35;101166.63;;;2.30;100.00
78016;BME280;67223;51.102;5.882;2024-01-07T02:14:00;101169.19;;;2.32;100.00
78016;BME280;67223;51.102;5.882;2024-01-07T02:16:26;101175.31;;;2.32;100.00
78016;BME280;67223;51.102;5.882;2024-01-07T02:18:51;101167.41;;;2.32;100.00
78016;BME280;67223;51.102;5.882;2024-01-07T02:21:16;101173.41;;;2.36;100.00
78016;BME280;67223;51.102;5.882;2024-01-07T02:23:42;101164.44;;;2.40;100.00
78016;BME280;67223;51.102;5.882;2024-01-07T02:26:07;101162.66;;;2.20;100.00
78016;BME280;67223;51.102;5.882;2024-01-07T02:28:33;101164.25;;;2.24;100.00
78016;BME280;67223;51.102;5.882;2024-01-07T02:30:59;101160.97;;;2.19;100.00
78016;BME280;67223;51.102;5.882;2024-01-07T02:33:24;101164.91;;;2.29;100.00
78016;BME280;67223;51.102;5.882;2024-01-07T02:35:50;101156.03;;;2.32;100.00
78016;BME280;67223;51.102;5.882;2024-01-07T02:38:15;101155.03;;;2.34;100.00
78016;BME280;67223;51.102;5.882;2024-01-07T02:40:41;101162.88;;;2.36;100.00
78016;BME280;67223;51.102;5.882;2024-01-07T02:43:07;101162.81;;;2.37;100.00
78016;BME280;67223;51.102;5.882;2024-01-07T02:45:32;101168.94;;;2.38;100.00
78016;BME280;67223;51.102;5.882;2024-01-07T02:47:58;101161.91;;;2.38;100.00
78016;BME280;67223;51.102;5.882;2024-01-07T02:50:23;101164.53;;;2.38;100.00
78016;BME280;67223;51.102;5.882;2024-01-07T02:52:49;101167.16;;;2.38;100.00
78016;BME280;67223;51.102;5.882;2024-01-07T02:55:14;101169.81;;;2.38;100.00
78016;BME280;67223;51.102;5.882;2024-01-07T02:57:40;101168.84;;;2.39;100.00
78016;BME280;67223;51.102;5.882;2024-01-07T03:00:06;101170.78;;;2.36;100.00
78016;BME280;67223;51.102;5.882;2024-01-07T03:05:27;101167.22;;;2.37;100.00
78016;BME280;67223;51.102;5.882;2024-01-07T03:07:54;101171.03;;;2.30;100.00
78016;BME280;67223;51.102;5.882;2024-01-07T03:10:19;101166.75;;;2.27;100.00
78016;BME280;67223;51.102;5.882;2024-01-07T03:12:45;101167.72;;;2.25;100.00
78016;BME280;67223;51.102;5.882;2024-01-07T03:15:10;101168.94;;;2.38;100.00
78016;BME280;67223;51.102;5.882;2024-01-07T03:17:36;101166.06;;;2.44;100.00
78016;BME280;67223;51.102;5.882;2024-01-07T03:20:01;101160.59;;;2.48;100.00
78016;BME280;67223;51.102;5.882;2024-01-07T03:22:27;101174.88;;;2.43;100.00
78016;BME280;67223;51.102;5.882;2024-01-07T03:24:52;101166.22;;;2.39;100.00
78016;BME280;67223;51.102;5.882;2024-01-07T03:27:17;101169.16;;;2.33;100.00
78016;BME280;67223;51.102;5.882;2024-01-07T03:29:43;101170.53;;;2.42;100.00
78016;BME280;67223;51.102;5.882;2024-01-07T03:32:08;101165.31;;;2.40;100.00
78016;BME280;67223;51.102;5.882;2024-01-07T03:34:34;101165.31;;;2.40;100.00
78016;BME280;67223;51.102;5.882;2024-01-07T03:36:59;101170.91;;;2.33;100.00
78016;BME280;67223;51.102;5.882;2024-01-07T03:39:25;101176.75;;;2.39;100.00
78016;BME280;67223;51.102;5.882;2024-01-07T03:41:54;101167.41;;;2.32;100.00
78016;BME280;67223;51.102;5.882;2024-01-07T03:44:20;101171.88;;;2.30;100.00
78016;BME280;67223;51.102;5.882;2024-01-07T03:46:45;101169.16;;;2.33;100.00
78016;BME280;67223;51.102;5.882;2024-01-07T03:49:11;101175.31;;;2.32;100.00
78016;BME280;67223;51.102;5.882;2024-01-07T03:51:36;101180.22;;;2.20;100.00
78016;BME280;67223;51.102;5.882;2024-01-07T03:54:02;101181.25;;;2.37;100.00
78016;BME280;67223;51.102;5.882;2024-01-07T03:56:27;101174.31;;;2.35;100.00
78016;BME280;67223;51.102;5.882;2024-01-07T03:58:52;101182.56;;;2.27;100.00
78016;BME280;67223;51.102;5.882;2024-01-07T04:01:18;101185.06;;;2.30;100.00
78016;BME280;67223;51.102;5.882;2024-01-07T04:03:43;101191.09;;;2.34;100.00
78016;BME280;67223;51.102;5.882;2024-01-07T04:06:09;101193.78;;;2.32;100.00
78016;BME280;67223;51.102;5.882;2024-01-07T04:08:34;101197.13;;;2.36;100.00
78016;BME280;67223;51.102;5.882;2024-01-07T04:11:02;101200.34;;;2.22;100.00
78016;BME280;67223;51.102;5.882;2024-01-07T04:13:27;101207.06;;;2.29;100.00
78016;BME280;67223;51.102;5.882;2024-01-07T04:15:52;101206.91;;;2.34;100.00
78016;BME280;67223;51.102;5.882;2024-01-07T04:18:18;101198.81;;;2.16;100.00
78016;BME280;67223;51.102;5.882;2024-01-07T04:20:43;101201.41;;;2.18;100.00
78016;BME280;67223;51.102;5.882;2024-01-07T04:23:09;101205.19;;;2.33;100.00
78016;BME280;67223;51.102;5.882;2024-01-07T04:25:34;101210.94;;;2.21;100.00
78016;BME280;67223;51.102;5.882;2024-01-07T04:28:00;101220.03;;;2.13;100.00
78016;BME280;67223;51.102;5.882;2024-01-07T04:30:25;101217.19;;;2.18;100.00
78016;BME280;67223;51.102;5.882;2024-01-07T04:32:50;101222.38;;;2.20;100.00
78016;BME280;67223;51.102;5.882;2024-01-07T04:35:16;101220.63;;;2.20;100.00
78016;BME280;67223;51.102;5.882;2024-01-07T04:37:42;101219.66;;;2.23;100.00
78016;BME280;67223;51.102;5.882;2024-01-07T04:40:07;101220.22;;;2.29;100.00
78016;BME280;67223;51.102;5.882;2024-01-07T04:42:34;101237.47;;;2.16;100.00
78016;BME280;67223;51.102;5.882;2024-01-07T04:44:59;101233.91;;;2.17;100.00
78016;BME280;67223;51.102;5.882;2024-01-07T04:47:33;101235.69;;;2.16;100.00
78016;BME280;67223;51.102;5.882;2024-01-07T04:50:02;101239.72;;;2.25;100.00
78016;BME280;67223;51.102;5.882;2024-01-07T04:52:28;101241.59;;;2.23;100.00
78016;BME280;67223;51.102;5.882;2024-01-07T04:54:54;101245.13;;;2.22;100.00
78016;BME280;67223;51.102;5.882;2024-01-07T04:57:20;101240.78;;;2.21;100.00
78016;BME280;67223;51.102;5.882;2024-01-07T04:59:46;101243.84;;;2.10;100.00
78016;BME280;67223;51.102;5.882;2024-01-07T05:02:12;101249.97;;;2.11;100.00
78016;BME280;67223;51.102;5.882;2024-01-07T05:04:38;101247.22;;;2.14;100.00
78016;BME280;67223;51.102;5.882;2024-01-07T05:07:03;101248.16;;;2.13;100.00
78016;BME280;67223;51.102;5.882;2024-01-07T05:09:29;101254.88;;;2.20;100.00
78016;BME280;67223;51.102;5.882;2024-01-07T05:11:54;101266.06;;;2.25;100.00
78016;BME280;67223;51.102;5.882;2024-01-07T05:14:20;101258.50;;;2.17;100.00
78016;BME280;67223;51.102;5.882;2024-01-07T05:16:47;101263.53;;;2.24;100.00
78016;BME280;67223;51.102;5.882;2024-01-07T05:19:13;101266.34;;;2.19;100.00
78016;BME280;67223;51.102;5.882;2024-01-07T05:21:38;101268.16;;;2.17;100.00
78016;BME280;67223;51.102;5.882;2024-01-07T05:24:04;101271.03;;;2.11;100.00
78016;BME280;67223;51.102;5.882;2024-01-07T05:26:29;101281.41;;;2.15;100.00
78016;BME280;67223;51.102;5.882;2024-01-07T05:28:55;101282.31;;;2.14;100.00
78016;BME280;67223;51.102;5.882;2024-01-07T05:31:20;101281.56;;;2.11;100.00
78016;BME280;67223;51.102;5.882;2024-01-07T05:33:46;101284.59;;;2.24;100.00
78016;BME280;67223;51.102;5.882;2024-01-07T05:36:12;101288.25;;;2.20;100.00
78016;BME280;67223;51.102;5.882;2024-01-07T05:38:38;101290.47;;;2.08;100.00
78016;BME280;67223;51.102;5.882;2024-01-07T05:41:04;101294.06;;;2.06;100.00
78016;BME280;67223;51.102;5.882;2024-01-07T05:43:30;101293.59;;;2.18;100.00
78016;BME280;67223;51.102;5.882;2024-01-07T05:45:55;101292.59;;;2.21;100.00
78016;BME280;67223;51.102;5.882;2024-01-07T05:48:23;101302.59;;;2.12;100.00
78016;BME280;67223;51.102;5.882;2024-01-07T05:50:49;101302.66;;;2.11;100.00
78016;BME280;67223;51.102;5.882;2024-01-07T05:53:16;101308.47;;;1.97;100.00
78016;BME280;67223;51.102;5.882;2024-01-07T05:55:42;101316.19;;;2.02;100.00
78016;BME280;67223;51.102;5.882;2024-01-07T05:58:07;101311.59;;;2.07;100.00
78016;BME280;67223;51.102;5.882;2024-01-07T06:00:33;101322.19;;;2.05;100.00
78016;BME280;67223;51.102;5.882;2024-01-07T06:02:59;101317.41;;;2.15;100.00
78016;BME280;67223;51.102;5.882;2024-01-07T06:05:24;101325.50;;;2.10;100.00
78016;BME280;67223;51.102;5.882;2024-01-07T06:07:49;101332.53;;;2.10;100.00
78016;BME280;67223;51.102;5.882;2024-01-07T06:10:15;101328.09;;;2.12;100.00
78016;BME280;67223;51.102;5.882;2024-01-07T06:12:40;101334.56;;;2.03;100.00
78016;BME280;67223;51.102;5.882;2024-01-07T06:15:06;101344.81;;;1.88;100.00
78016;BME280;67223;51.102;5.882;2024-01-07T06:17:32;101344.53;;;1.95;100.00
78016;BME280;67223;51.102;5.882;2024-01-07T06:19:58;101346.41;;;1.92;100.00
78016;BME280;67223;51.102;5.882;2024-01-07T06:22:23;101358.56;;;1.96;100.00
78016;BME280;67223;51.102;5.882;2024-01-07T06:24:49;101361.25;;;1.94;100.00
78016;BME280;67223;51.102;5.882;2024-01-07T06:27:14;101363.47;;;1.82;100.00
78016;BME280;67223;51.102;5.882;2024-01-07T06:29:40;101371.50;;;1.79;100.00
78016;BME280;67223;51.102;5.882;2024-01-07T06:32:05;101358.56;;;1.96;100.00
78016;BME280;67223;51.102;5.882;2024-01-07T06:34:31;101373.97;;;1.83;100.00
78016;BME280;67223;51.102;5.882;2024-01-07T06:36:58;101377.28;;;1.88;100.00
78016;BME280;67223;51.102;5.882;2024-01-07T06:39:23;101388.69;;;1.89;100.00
78016;BME280;67223;51.102;5.882;2024-01-07T06:41:52;101381.16;;;1.78;100.00
78016;BME280;67223;51.102;5.882;2024-01-07T06:44:17;101386.59;;;1.73;100.00
78016;BME280;67223;51.102;5.882;2024-01-07T06:46:43;101391.63;;;1.80;100.00
78016;BME280;67223;51.102;5.882;2024-01-07T06:49:08;101393.69;;;1.71;100.00
78016;BME280;67223;51.102;5.882;2024-01-07T06:51:34;101398.84;;;1.74;100.00
78016;BME280;67223;51.102;5.882;2024-01-07T06:53:59;101402.94;;;1.83;100.00
78016;BME280;67223;51.102;5.882;2024-01-07T06:56:24;101399.03;;;1.93;100.00
78016;BME280;67223;51.102;5.882;2024-01-07T06:58:50;101406.31;;;1.87;100.00
78016;BME280;67223;51.102;5.882;2024-01-07T07:01:20;101411.00;;;1.79;100.00
78016;BME280;67223;51.102;5.882;2024-01-07T07:03:49;101423.22;;;1.80;100.00
78016;BME280;67223;51.102;5.882;2024-01-07T07:06:15;101427.72;;;1.78;100.00
78016;BME280;67223;51.102;5.882;2024-01-07T07:08:41;101431.38;;;1.73;100.00
78016;BME280;67223;51.102;5.882;2024-01-07T07:11:07;101424.38;;;1.72;100.00
78016;BME280;67223;51.102;5.882;2024-01-07T07:13:32;101390.94;;;3.89;100.00
78016;BME280;67223;51.102;5.882;2024-01-07T07:15:59;101405.22;;;3.85;100.00
78016;BME280;67223;51.102;5.882;2024-01-07T07:18:24;101407.94;;;4.41;100.00
78016;BME280;67223;51.102;5.882;2024-01-07T07:20:50;101403.78;;;5.26;100.00
78016;BME280;67223;51.102;5.882;2024-01-07T07:23:16;101410.06;;;5.58;100.00
78016;BME280;67223;51.102;5.882;2024-01-07T07:25:42;101417.78;;;5.80;100.00
78016;BME280;67223;51.102;5.882;2024-01-07T07:28:07;101442.69;;;4.88;100.00
78016;BME280;67223;51.102;5.882;2024-01-07T07:30:32;101450.41;;;5.11;100.00
78016;BME280;67223;51.102;5.882;2024-01-07T07:32:58;101438.69;;;6.67;100.00
78016;BME280;67223;51.102;5.882;2024-01-07T07:35:23;101460.72;;;6.03;100.00
78016;BME280;67223;51.102;5.882;2024-01-07T07:37:48;101473.03;;;6.04;100.00
78016;BME280;67223;51.102;5.882;2024-01-07T07:40:14;101453.50;;;6.87;100.00
78016;BME280;67223;51.102;5.882;2024-01-07T07:42:39;101508.72;;;5.46;100.00
78016;BME280;67223;51.102;5.882;2024-01-07T07:45:05;101493.56;;;6.34;100.00
78016;BME280;67223;51.102;5.882;2024-01-07T07:47:31;101522.06;;;5.79;100.00
78016;BME280;67223;51.102;5.882;2024-01-07T07:49:57;101531.91;;;5.94;100.00
78016;BME280;67223;51.102;5.882;2024-01-07T07:52:22;101554.22;;;5.54;100.00
78016;BME280;67223;51.102;5.882;2024-01-07T07:54:51;101554.22;;;5.54;100.00
78016;BME280;67223;51.102;5.882;2024-01-07T07:57:17;101576.91;;;5.59;100.00
78016;BME280;67223;51.102;5.882;2024-01-07T07:59:42;101576.78;;;5.80;100.00
78016;BME280;67223;51.102;5.882;2024-01-07T08:02:08;101566.31;;;7.27;100.00
78016;BME280;67223;51.102;5.882;2024-01-07T08:04:33;101630.34;;;5.86;100.00
78016;BME280;67223;51.102;5.882;2024-01-07T08:06:59;101629.84;;;5.24;100.00
78016;BME280;67223;51.102;5.882;2024-01-07T08:09:26;101625.19;;;5.47;100.00
78016;BME280;67223;51.102;5.882;2024-01-07T08:11:51;101610.59;;;6.62;100.00
78016;BME280;67223;51.102;5.882;2024-01-07T08:14:17;101629.13;;;5.93;100.00
78016;BME280;67223;51.102;5.882;2024-01-07T08:16:42;101605.72;;;6.70;100.00
78016;BME280;67223;51.102;5.882;2024-01-07T08:19:07;101649.31;;;5.23;100.00
78016;BME280;67223;51.102;5.882;2024-01-07T08:21:33;101650.25;;;5.22;100.00
78016;BME280;67223;51.102;5.882;2024-01-07T08:23:59;101650.25;;;5.03;100.00
78016;BME280;67223;51.102;5.882;2024-01-07T08:26:24;101630.34;;;6.05;100.00
78016;BME280;67223;51.102;5.882;2024-01-07T08:28:50;101651.63;;;5.85;100.00
78016;BME280;67223;51.102;5.882;2024-01-07T08:31:15;101644.38;;;7.24;100.00
78016;BME280;67223;51.102;5.882;2024-01-07T08:33:41;101652.50;;;7.06;100.00
78016;BME280;67223;51.102;5.882;2024-01-07T08:36:07;101679.41;;;6.48;100.00
78016;BME280;67223;51.102;5.882;2024-01-07T08:38:32;101679.72;;;6.76;100.00
78016;BME280;67223;51.102;5.882;2024-01-07T08:40:58;101691.91;;;6.80;100.00
78016;BME280;67223;51.102;5.882;2024-01-07T08:43:23;101686.34;;;6.85;100.00
78016;BME280;67223;51.102;5.882;2024-01-07T08:45:49;101702.13;;;6.54;100.00
78016;BME280;67223;51.102;5.882;2024-01-07T08:48:15;101674.31;;;7.91;100.00
78016;BME280;67223;51.102;5.882;2024-01-07T08:50:41;101721.13;;;7.46;100.00
78016;BME280;67223;51.102;5.882;2024-01-07T08:53:06;101691.06;;;8.38;100.00
78016;BME280;67223;51.102;5.882;2024-01-07T08:55:31;101701.44;;;7.66;100.00
78016;BME280;67223;51.102;5.882;2024-01-07T08:57:57;101733.63;;;6.25;100.00
78016;BME280;67223;51.102;5.882;2024-01-07T09:00:22;101724.72;;;8.08;100.00
78016;BME280;67223;51.102;5.882;2024-01-07T09:02:51;101739.56;;;7.16;100.00
78016;BME280;67223;51.102;5.882;2024-01-07T09:05:17;101740.75;;;6.59;100.00
78016;BME280;67223;51.102;5.882;2024-01-07T09:07:42;101730.03;;;6.26;100.00
78016;BME280;67223;51.102;5.882;2024-01-07T09:10:08;101734.44;;;7.29;100.00
78016;BME280;67223;51.102;5.882;2024-01-07T09:12:38;101739.50;;;7.66;100.00
78016;BME280;67223;51.102;5.882;2024-01-07T09:15:04;101774.16;;;6.63;100.00
78016;BME280;67223;51.102;5.882;2024-01-07T09:17:34;101779.31;;;5.94;100.00
78016;BME280;67223;51.102;5.882;2024-01-07T09:19:59;101765.63;;;6.03;100.00
78016;BME280;67223;51.102;5.882;2024-01-07T09:22:25;101753.41;;;7.39;100.00
78016;BME280;67223;51.102;5.882;2024-01-07T09:24:50;101767.84;;;6.83;100.00
78016;BME280;67223;51.102;5.882;2024-01-07T09:27:16;101777.75;;;6.45;100.00
78016;BME280;67223;51.102;5.882;2024-01-07T09:29:41;101750.88;;;7.20;100.00
78016;BME280;67223;51.102;5.882;2024-01-07T09:32:07;101776.06;;;6.96;100.00
78016;BME280;67223;51.102;5.882;2024-01-07T09:34:32;101793.44;;;5.56;100.00
78016;BME280;67223;51.102;5.882;2024-01-07T09:36:57;101795.88;;;5.42;100.00
78016;BME280;67223;51.102;5.882;2024-01-07T09:39:23;101812.91;;;4.09;100.00
78016;BME280;67223;51.102;5.882;2024-01-07T09:41:48;101788.28;;;7.32;100.00
78016;BME280;67223;51.102;5.882;2024-01-07T09:44:14;101787.22;;;7.19;100.00
78016;BME280;67223;51.102;5.882;2024-01-07T09:46:41;101801.66;;;6.79;100.00
78016;BME280;67223;51.102;5.882;2024-01-07T09:49:08;101835.56;;;4.81;100.00
78016;BME280;67223;51.102;5.882;2024-01-07T09:51:35;101818.19;;;4.32;100.00
78016;BME280;67223;51.102;5.882;2024-01-07T09:54:03;101829.56;;;3.66;100.00
78016;BME280;67223;51.102;5.882;2024-01-07T09:56:38;101808.44;;;4.76;100.00
78016;BME280;67223;51.102;5.882;2024-01-07T09:59:06;101779.34;;;6.83;100.00
78016;BME280;67223;51.102;5.882;2024-01-07T10:01:32;101780.56;;;6.59;100.00
78016;BME280;67223;51.102;5.882;2024-01-07T10:04:00;101789.59;;;6.91;100.00
78016;BME280;67223;51.102;5.882;2024-01-07T10:06:26;101777.19;;;7.42;100.00
78016;BME280;67223;51.102;5.882;2024-01-07T10:08:52;101814.34;;;6.91;100.00
78016;BME280;67223;51.102;5.882;2024-01-07T10:11:17;101832.72;;;6.05;100.00
78016;BME280;67223;51.102;5.882;2024-01-07T10:13:45;101842.91;;;5.76;100.00
78016;BME280;67223;51.102;5.882;2024-01-07T10:16:13;101816.97;;;8.07;100.00
78016;BME280;67223;51.102;5.882;2024-01-07T10:18:39;101858.34;;;6.24;100.00
78016;BME280;67223;51.102;5.882;2024-01-07T10:21:06;101847.09;;;6.73;100.00
78016;BME280;67223;51.102;5.882;2024-01-07T10:23:32;101834.72;;;6.91;100.00
78016;BME280;67223;51.102;5.882;2024-01-07T10:25:58;101863.31;;;6.13;100.00
78016;BME280;67223;51.102;5.882;2024-01-07T10:28:23;101862.50;;;5.92;100.00
78016;BME280;67223;51.102;5.882;2024-01-07T10:30:49;101834.06;;;6.69;100.00
78016;BME280;67223;51.102;5.882;2024-01-07T10:33:17;101839.13;;;7.59;100.00
78016;BME280;67223;51.102;5.882;2024-01-07T10:35:52;101845.88;;;7.98;100.00
78016;BME280;67223;51.102;5.882;2024-01-07T10:38:20;101863.78;;;7.11;100.00
78016;BME280;67223;51.102;5.882;2024-01-07T10:40:47;101880.94;;;6.51;100.00
78016;BME280;67223;51.102;5.882;2024-01-07T10:43:15;101873.97;;;6.30;100.00
78016;BME280;67223;51.102;5.882;2024-01-07T10:45:43;101869.03;;;6.41;100.00
78016;BME280;67223;51.102;5.882;2024-01-07T10:48:11;101853.22;;;7.44;100.00
78016;BME280;67223;51.102;5.882;2024-01-07T10:50:38;101866.00;;;7.70;100.00
78016;BME280;67223;51.102;5.882;2024-01-07T10:53:06;101852.44;;;8.08;100.00
78016;BME280;67223;51.102;5.882;2024-01-07T10:55:34;101875.75;;;7.37;100.00
78016;BME280;67223;51.102;5.882;2024-01-07T10:58:03;101902.53;;;6.62;100.00
78016;BME280;67223;51.102;5.882;2024-01-07T11:00:30;101861.63;;;7.52;100.00
78016;BME280;67223;51.102;5.882;2024-01-07T11:03:27;101869.72;;;7.33;100.00
78016;BME280;67223;51.102;5.882;2024-01-07T11:08:43;101888.50;;;7.81;100.00
78016;BME280;67223;51.102;5.882;2024-01-07T11:11:23;101891.06;;;7.32;100.00
78016;BME280;67223;51.102;5.882;2024-01-07T11:13:51;101870.03;;;8.10;100.00
78016;BME280;67223;51.102;5.882;2024-01-07T11:19:05;101879.63;;;6.96;100.00
78016;BME280;67223;51.102;5.882;2024-01-07T11:21:30;101892.56;;;6.11;100.00
78016;BME280;67223;51.102;5.882;2024-01-07T11:23:56;101879.50;;;7.16;100.00
78016;BME280;67223;51.102;5.882;2024-01-07T11:26:22;101895.28;;;6.47;100.00
78016;BME280;67223;51.102;5.882;2024-01-07T11:28:52;101884.59;;;6.84;100.00
78016;BME280;67223;51.102;5.882;2024-01-07T11:31:20;101911.13;;;6.30;100.00
78016;BME280;67223;51.102;5.882;2024-01-07T11:33:47;101881.66;;;7.59;100.00
78016;BME280;67223;51.102;5.882;2024-01-07T11:36:14;101905.94;;;6.64;100.00
78016;BME280;67223;51.102;5.882;2024-01-07T11:41:10;101920.94;;;6.28;100.00
78016;BME280;67223;51.102;5.882;2024-01-07T11:43:37;101902.09;;;6.34;100.00
78016;BME280;67223;51.102;5.882;2024-01-07T11:46:03;101909.34;;;6.85;100.00
78016;BME280;67223;51.102;5.882;2024-01-07T11:48:28;101876.81;;;8.16;100.00
78016;BME280;67223;51.102;5.882;2024-01-07T11:50:54;101914.78;;;7.01;100.00
78016;BME280;67223;51.102;5.882;2024-01-07T11:53:20;101915.66;;;6.82;100.00
78016;BME280;67223;51.102;5.882;2024-01-07T11:55:46;101905.56;;;7.59;100.00
78016;BME280;67223;51.102;5.882;2024-01-07T11:58:12;101918.16;;;8.06;100.00
78016;BME280;67223;51.102;5.882;2024-01-07T12:00:37;101933.19;;;8.07;100.00
78016;BME280;67223;51.102;5.882;2024-01-07T12:03:03;101931.84;;;7.48;100.00
78016;BME280;67223;51.102;5.882;2024-01-07T12:05:30;101934.94;;;7.91;100.00
78016;BME280;67223;51.102;5.882;2024-01-07T12:07:56;101925.84;;;8.60;100.00
78016;BME280;67223;51.102;5.882;2024-01-07T12:10:22;101934.81;;;8.09;100.00
78016;BME280;67223;51.102;5.882;2024-01-07T12:12:48;101941.50;;;7.15;100.00
78016;BME280;67223;51.102;5.882;2024-01-07T12:15:14;101932.66;;;6.42;100.00
78016;BME280;67223;51.102;5.882;2024-01-07T12:17:40;101935.16;;;5.26;100.00
78016;BME280;67223;51.102;5.882;2024-01-07T12:20:07;101920.41;;;5.81;100.00
78016;BME280;67223;51.102;5.882;2024-01-07T12:22:37;101883.69;;;7.03;100.00
78016;BME280;67223;51.102;5.882;2024-01-07T12:25:04;101923.63;;;3.70;100.00
78016;BME280;67223;51.102;5.882;2024-01-07T12:27:30;101921.78;;;2.68;100.00
78016;BME280;67223;51.102;5.882;2024-01-07T12:29:57;101901.63;;;2.93;100.00
78016;BME280;67223;51.102;5.882;2024-01-07T12:32:22;101883.44;;;2.84;100.00
78016;BME280;67223;51.102;5.882;2024-01-07T12:34:48;101882.75;;;2.51;100.00
78016;BME280;67223;51.102;5.882;2024-01-07T12:37:14;101866.19;;;2.74;100.00
78016;BME280;67223;51.102;5.882;2024-01-07T12:39:40;101871.78;;;2.37;100.00
78016;BME280;67223;51.102;5.882;2024-01-07T12:42:06;101876.19;;;2.37;100.00
78016;BME280;67223;51.102;5.882;2024-01-07T12:44:32;101882.69;;;2.25;100.00
78016;BME280;67223;51.102;5.882;2024-01-07T12:46:58;101883.09;;;2.41;100.00
78016;BME280;67223;51.102;5.882;2024-01-07T12:49:23;101878.97;;;2.32;100.00
78016;BME280;67223;51.102;5.882;2024-01-07T12:51:49;101885.47;;;2.21;100.00
78016;BME280;67223;51.102;5.882;2024-01-07T12:54:14;101881.09;;;2.20;100.00